createdAt,value
2022-11-25T05:00:33.749Z,5.00
2022-11-25T05:11:38.596Z,3.40
2022-11-25T05:22:38.469Z,3.00
2022-11-25T05:33:38.357Z,3.30
2022-11-25T05:44:38.497Z,2.50
2022-11-25T05:55:38.097Z,3.20
2022-11-25T06:06:37.980Z,3.20
2022-11-25T06:17:37.853Z,2.80
2022-11-25T06:28:38.747Z,2.70
2022-11-25T06:39:37.646Z,3.10
2022-11-25T06:50:37.477Z,3.30
2022-11-25T07:01:37.433Z,2.40
2022-11-25T07:12:37.229Z,3.70
2022-11-25T07:23:37.121Z,3.90
2022-11-25T07:34:37.906Z,3.50
2022-11-25T07:45:36.862Z,3.60
2022-11-25T07:56:36.733Z,3.10
2022-11-25T08:07:37.009Z,3.30
2022-11-25T08:18:36.494Z,3.70
2022-11-25T08:29:36.608Z,3.40
2022-11-25T08:40:37.246Z,3.40
2022-11-25T08:51:36.110Z,3.20
2022-11-25T09:02:36.017Z,2.80
2022-11-25T09:13:35.927Z,2.70
2022-11-25T09:24:35.736Z,3.20
2022-11-25T09:35:35.619Z,4.00
2022-11-25T09:46:35.663Z,4.60
2022-11-25T09:57:35.372Z,2.80
2022-11-25T10:08:35.250Z,3.40
2022-11-25T10:19:35.600Z,2.70
2022-11-25T10:30:34.995Z,4.60
2022-11-25T10:41:34.882Z,4.10
2022-11-25T10:52:34.753Z,5.20
2022-11-25T11:03:34.621Z,4.10
2022-11-25T11:14:34.860Z,3.10
2022-11-25T11:25:34.377Z,4.50
2022-11-25T11:36:34.246Z,4.20
2022-11-25T11:47:34.180Z,2.90
2022-11-25T11:58:34.041Z,2.80
2022-11-25T12:09:33.891Z,3.60
2022-11-25T12:20:33.747Z,5.30
2022-11-25T12:31:33.708Z,4.80
2022-11-25T12:42:33.497Z,3.60
2022-11-25T12:53:33.387Z,3.90
2022-11-25T13:04:33.259Z,4.00
2022-11-25T13:15:33.598Z,3.90
2022-11-25T13:26:33.017Z,4.00
2022-11-25T13:37:36.321Z,4.50
2022-11-25T13:48:32.751Z,4.30
2022-11-25T13:59:32.639Z,4.70
2022-11-25T14:10:32.517Z,5.40
2022-11-25T14:21:32.376Z,3.10
2022-11-25T14:32:32.271Z,3.50
2022-11-25T14:43:32.126Z,4.10
2022-11-25T14:54:31.998Z,3.00
2022-11-25T15:05:31.882Z,4.20
2022-11-25T15:16:31.783Z,4.60
2022-11-25T15:27:31.619Z,4.20
2022-11-25T15:38:31.499Z,4.40
2022-11-25T15:49:31.365Z,3.60
2022-11-25T16:00:31.261Z,3.60
2022-11-25T16:11:31.521Z,4.00
2022-11-25T16:22:31.035Z,3.90
2022-11-25T16:33:30.865Z,4.10
2022-11-25T16:44:30.740Z,4.10
2022-11-25T16:55:30.631Z,5.30
2022-11-25T17:06:30.488Z,4.80
2022-11-25T17:17:30.478Z,5.70
2022-11-25T17:28:30.241Z,5.60
2022-11-25T17:39:30.115Z,4.40
2022-11-25T17:50:29.993Z,4.50
2022-11-25T18:01:29.922Z,5.90
2022-11-25T18:12:29.744Z,4.50
2022-11-25T18:23:29.635Z,5.10
2022-11-25T18:34:29.513Z,5.40
2022-11-25T18:45:29.420Z,5.20
2022-11-25T18:56:29.251Z,6.50
2022-11-25T19:07:29.236Z,4.50
2022-11-25T19:18:29.022Z,6.60
2022-11-25T19:29:28.894Z,7.00
2022-11-25T19:40:28.760Z,6.70
2022-11-25T19:51:28.636Z,8.40
2022-11-25T20:02:28.554Z,7.10
2022-11-25T20:13:28.385Z,7.60
2022-11-25T20:24:28.282Z,7.00
2022-11-25T20:35:28.152Z,7.20
2022-11-25T20:46:28.013Z,5.30
2022-11-25T20:57:27.892Z,6.60
2022-11-25T21:08:27.769Z,6.70
2022-11-25T21:19:27.645Z,7.00
2022-11-25T21:30:27.533Z,11.90
2022-11-25T21:41:27.420Z,8.30
2022-11-25T21:52:27.267Z,7.60
